Decoded Metar for OIHR (ARAK in IRAN) (IATA:N/A) | Meteo·Mobile Aviation Weather
aviador You're here:

OIHR Decoded Metar

ARAK in IRAN
Report Time2019-01-19 07:00:00
UTC Time2019-01-19 07:12:54
Flight Rules vfr VFR
Wind150° at 06 kt
W.Decomp.*RWY 08: 2.3 kt HW 5.5 kt RCW
W.Rank150° ranks 25
Current wind is below 150° avg. (7.2)
Visibility9999 m
Phenomena:N/A
Clouds:Few 035 Hf
Scattered 190 Hf
Expected CloudBase > 2,000 ft AGL from Temp-Dew spread
CeilingNone
Temp-4°C (ISA -8)
Dew Point-9°C (69% RH)
AAT-9.1°C
QNH1019 hPa
Density Alt4,298 ft
Elevation5,440 ft
Report Wrong Elevation
Raw Report
METAR OIHR 190700Z 15006KT 9999 FEW035 SCT190 M04/M09 Q1019=

Extra information for OIHR:More info

Metar Taf Metar & Taf Last 4 Metars F.Rules Stats Wind Profile Meteogram Temp Stats Airport Information Weather charts Add Link Nearby VenuesMetar ALERT Operation Metar Decoded Social comments